Terminal Aerodrome Forecast
Issued by NWS

Home | Current Version | Previous Version | Text Only | Print | Product List | Glossary On
Versions: 1 2 3 4 5 6 7 8 9 10 11 12
517
FTUS45 KRIW 301743
TAFLND
TAF
KLND 301743Z 3018/3118 01005KT P6SM SCT090 BKN150
     FM302200 21008KT P6SM VCSH SCT050 BKN080
     FM310100 01006KT P6SM SCT025 OVC040
     FM310300 36007KT P6SM -RA OVC024
     FM310600 34007KT 4SM -RA OVC014
     FM310900 35007KT 2SM RA OVC008
     FM311200 35009KT 1/2SM SN OVC005=

USA.gov is the U.S. government's official web portal to all federal, state and local government web resources and services.